createdAt,value
2022-08-19T10:09:34.295Z,20.00
2022-08-19T10:12:04.094Z,20.50
2022-08-19T10:14:32.013Z,20.60
2022-08-19T10:17:01.300Z,20.60
2022-08-19T10:19:55.028Z,20.70
2022-08-19T10:22:23.970Z,20.70
2022-08-19T10:24:54.085Z,20.90
2022-08-19T10:27:22.023Z,20.90
2022-08-19T10:29:49.476Z,21.10
2022-08-19T10:32:16.934Z,21.20
2022-08-19T10:34:48.221Z,21.20
2022-08-19T10:37:23.702Z,21.40
2022-08-19T10:39:56.766Z,21.30
2022-08-19T10:42:24.252Z,21.50
2022-08-19T10:44:52.033Z,21.70
2022-08-19T10:47:26.109Z,21.80
2022-08-19T10:50:17.277Z,21.70
2022-08-19T10:52:50.267Z,21.80
2022-08-19T10:55:42.091Z,21.70
2022-08-19T10:58:18.876Z,21.70
2022-08-19T11:00:55.732Z,22.10
2022-08-19T11:03:24.439Z,22.40
2022-08-19T11:06:02.903Z,22.30
2022-08-19T11:08:31.688Z,22.20
2022-08-19T11:11:02.165Z,22.70
2022-08-19T11:13:31.742Z,22.80
2022-08-19T11:16:08.669Z,22.90
2022-08-19T11:18:38.549Z,22.80
2022-08-19T11:21:11.545Z,23.10
2022-08-19T11:23:39.099Z,23.60
2022-08-19T11:26:07.002Z,23.50
2022-08-19T11:28:34.566Z,23.40
2022-08-19T11:31:04.241Z,23.70
2022-08-19T11:33:32.541Z,24.00
2022-08-19T11:36:01.636Z,23.70
2022-08-19T11:38:29.169Z,23.90
2022-08-19T11:40:58.618Z,24.30
2022-08-19T11:43:27.709Z,24.00
2022-08-19T11:45:56.727Z,23.90
2022-08-19T11:48:26.284Z,23.80
2022-08-19T11:50:57.927Z,24.20
2022-08-19T11:53:25.748Z,24.10
2022-08-19T11:55:57.700Z,24.10
2022-08-19T11:58:25.919Z,24.20
2022-08-19T12:00:53.781Z,24.20
2022-08-19T12:03:21.738Z,24.20
2022-08-19T12:05:50.768Z,24.20
2022-08-19T12:08:19.242Z,24.40
2022-08-19T12:10:49.158Z,24.20
2022-08-19T12:13:16.982Z,24.20
2022-08-19T12:15:46.365Z,24.80
2022-08-19T12:18:14.865Z,24.70
2022-08-19T12:20:43.907Z,24.70
2022-08-19T12:23:11.754Z,24.70
2022-08-19T12:25:50.914Z,24.80
2022-08-19T12:28:22.346Z,25.00
2022-08-19T12:30:53.701Z,24.70
2022-08-19T12:33:26.547Z,24.70
2022-08-19T12:35:54.522Z,24.70
2022-08-19T12:38:25.203Z,24.70
2022-08-19T12:40:55.972Z,24.70
2022-08-19T12:43:25.822Z,24.30
2022-08-19T12:45:53.799Z,24.40
2022-08-19T12:48:34.488Z,24.20
2022-08-19T12:51:09.473Z,24.30
2022-08-19T12:53:39.317Z,24.40
2022-08-19T12:56:11.574Z,24.30
2022-08-19T12:58:40.491Z,24.20
2022-08-19T13:01:10.029Z,24.20
2022-08-19T13:03:40.621Z,24.00
2022-08-19T13:06:10.122Z,24.10
2022-08-19T13:08:39.438Z,24.30
2022-08-19T13:11:12.801Z,24.20
2022-08-19T13:13:42.756Z,24.30
2022-08-19T13:16:12.084Z,24.60
2022-08-19T13:18:41.187Z,24.50
2022-08-19T13:21:11.005Z,24.80
2022-08-19T13:23:38.810Z,25.00
2022-08-19T13:26:08.218Z,25.10
2022-08-19T13:28:55.131Z,25.10
2022-08-19T13:31:43.718Z,24.80
2022-08-19T13:34:11.748Z,25.10
2022-08-19T13:36:39.559Z,25.00
2022-08-19T13:39:09.428Z,25.20
2022-08-19T13:41:37.884Z,25.10
2022-08-19T13:44:07.332Z,25.40
2022-08-19T13:46:34.730Z,25.50
2022-08-19T13:49:02.254Z,25.70
2022-08-19T13:51:29.725Z,25.70
2022-08-19T13:53:57.461Z,25.60
2022-08-19T13:56:26.483Z,25.60
2022-08-19T13:58:54.578Z,25.60
2022-08-19T14:01:25.059Z,25.40
2022-08-19T14:03:52.948Z,25.40
2022-08-19T14:06:22.313Z,25.30
2022-08-19T14:08:50.131Z,25.30
2022-08-19T14:11:17.954Z,25.20
2022-08-19T14:13:45.472Z,25.10
2022-08-19T14:16:14.986Z,25.30
2022-08-19T14:18:43.650Z,25.00
2022-08-19T14:21:18.300Z,24.80
2022-08-19T14:23:46.107Z,25.00
2022-08-19T14:26:17.739Z,25.10
2022-08-19T14:28:46.226Z,25.50
2022-08-19T14:31:19.365Z,25.30
2022-08-19T14:33:49.897Z,25.20
2022-08-19T14:36:18.234Z,25.30
2022-08-19T14:38:45.682Z,25.50
2022-08-19T14:41:22.265Z,25.50
2022-08-19T14:43:51.321Z,25.60
2022-08-19T14:46:26.124Z,25.60
2022-08-19T14:48:56.841Z,25.70
2022-08-19T14:51:25.982Z,25.80
2022-08-19T14:53:53.797Z,25.80
2022-08-19T14:56:25.601Z,25.70
2022-08-19T14:58:53.546Z,25.80
2022-08-19T15:01:23.085Z,25.90
2022-08-19T15:03:53.917Z,26.10
2022-08-19T15:06:23.135Z,26.00
2022-08-19T15:08:52.654Z,26.10
2022-08-19T15:11:23.651Z,26.30
2022-08-19T15:13:51.750Z,26.20
2022-08-19T15:16:20.033Z,26.40
2022-08-19T15:18:50.947Z,26.30
2022-08-19T15:21:26.744Z,26.60
2022-08-19T15:23:57.257Z,26.60
2022-08-19T15:26:27.304Z,26.60
2022-08-19T15:28:54.837Z,26.60
2022-08-19T15:31:25.513Z,26.40
2022-08-19T15:33:58.710Z,26.60
2022-08-19T15:36:27.696Z,26.70
2022-08-19T15:38:56.624Z,26.80
2022-08-19T15:41:27.870Z,26.80
2022-08-19T15:44:03.835Z,27.00
2022-08-19T15:46:34.194Z,27.30
2022-08-19T15:49:02.204Z,27.30
2022-08-19T15:51:32.063Z,27.20
2022-08-19T15:54:00.233Z,27.20
2022-08-19T15:56:58.357Z,27.30
2022-08-19T15:59:47.422Z,27.10
2022-08-19T16:02:37.186Z,26.90
2022-08-19T16:05:26.540Z,26.90
2022-08-19T16:07:54.696Z,26.90
2022-08-19T16:10:27.397Z,26.70
2022-08-19T16:12:57.440Z,26.40
2022-08-19T16:15:30.658Z,26.50
2022-08-19T16:17:58.975Z,26.60
2022-08-19T16:20:27.786Z,26.40
2022-08-19T16:22:58.403Z,26.30
2022-08-19T16:25:29.282Z,26.20
2022-08-19T16:28:07.289Z,26.30
2022-08-19T16:30:38.679Z,26.10
2022-08-19T16:33:07.325Z,26.10
2022-08-19T16:35:34.969Z,26.30
2022-08-19T16:38:02.730Z,26.70
2022-08-19T16:40:30.196Z,26.80
2022-08-19T16:42:57.691Z,27.00
2022-08-19T16:45:25.211Z,26.90
2022-08-19T16:47:52.674Z,26.90
2022-08-19T16:50:25.460Z,26.90
2022-08-19T16:53:09.728Z,26.80
2022-08-19T16:55:37.745Z,26.70
2022-08-19T16:58:05.509Z,26.70
2022-08-19T17:00:33.638Z,26.60
2022-08-19T17:03:14.787Z,26.60
2022-08-19T17:05:47.637Z,26.50
2022-08-19T17:08:17.480Z,26.40
2022-08-19T17:11:02.118Z,26.30
2022-08-19T17:13:33.538Z,26.20
2022-08-19T17:16:01.345Z,26.10
2022-08-19T17:18:31.799Z,26.00
2022-08-19T17:21:02.477Z,25.80
2022-08-19T17:23:36.702Z,25.60
2022-08-19T17:26:17.018Z,25.50
2022-08-19T17:28:49.782Z,25.40
2022-08-19T17:31:19.582Z,25.20
2022-08-19T17:33:48.769Z,25.10
2022-08-19T17:36:18.140Z,24.90
2022-08-19T17:38:46.512Z,24.90
2022-08-19T17:41:14.044Z,24.80
2022-08-19T17:43:43.924Z,24.70
2022-08-19T17:46:18.728Z,24.60
2022-08-19T17:48:52.748Z,24.40
2022-08-19T17:51:42.126Z,24.20
2022-08-19T17:54:12.905Z,24.20
2022-08-19T17:56:41.750Z,24.30
2022-08-19T17:59:13.878Z,24.00
2022-08-19T18:01:53.652Z,24.00
2022-08-19T18:04:25.185Z,24.10
2022-08-19T18:06:55.365Z,24.10
2022-08-19T18:09:30.096Z,24.20
2022-08-19T18:17:43.037Z,24.10
2022-08-19T18:20:13.524Z,23.90
2022-08-19T18:22:44.635Z,23.80
2022-08-19T18:25:19.195Z,23.80
2022-08-19T18:27:47.546Z,23.80
2022-08-19T18:30:15.221Z,23.70
2022-08-19T18:32:44.165Z,23.40
2022-08-19T18:35:14.742Z,23.10
2022-08-19T18:37:43.440Z,23.00
2022-08-19T18:40:33.370Z,22.60
2022-08-19T18:43:19.180Z,22.40
2022-08-19T18:46:07.112Z,22.30
2022-08-19T18:48:54.675Z,22.20
2022-08-19T18:51:27.799Z,22.20
2022-08-19T18:53:58.719Z,22.50
2022-08-19T18:56:29.243Z,22.70
2022-08-19T18:58:56.740Z,22.90
2022-08-19T19:01:50.688Z,23.10
2022-08-19T19:04:21.134Z,23.00
2022-08-19T19:06:48.850Z,23.10
2022-08-19T19:09:19.793Z,23.10
2022-08-19T19:11:51.049Z,23.10
2022-08-19T19:14:48.302Z,23.20
2022-08-19T19:17:16.764Z,23.20
2022-08-19T19:19:44.800Z,23.10
2022-08-19T19:22:15.448Z,23.00
2022-08-19T19:24:45.599Z,23.00
2022-08-19T19:27:15.731Z,23.00
2022-08-19T19:29:43.175Z,22.90
2022-08-19T19:32:18.247Z,22.70
2022-08-19T19:34:45.791Z,22.70
2022-08-19T19:37:13.486Z,22.80
2022-08-19T19:39:45.755Z,22.80
2022-08-19T19:42:20.343Z,22.80
2022-08-19T19:44:50.756Z,22.70
2022-08-19T19:47:19.372Z,22.70
2022-08-19T19:50:13.812Z,22.70
2022-08-19T19:52:40.166Z,22.60
2022-08-19T19:55:09.503Z,22.70
2022-08-19T19:57:39.251Z,22.70
2022-08-19T20:00:09.129Z,22.60
2022-08-19T20:02:36.621Z,22.70
2022-08-19T20:05:04.602Z,22.60
2022-08-19T20:07:50.461Z,22.60
2022-08-19T20:10:18.036Z,22.60
2022-08-19T20:12:45.441Z,22.50
2022-08-19T20:15:14.894Z,22.40
2022-08-19T20:17:43.088Z,22.30
2022-08-19T20:20:15.056Z,22.40
2022-08-19T20:22:43.755Z,22.10
2022-08-19T20:25:12.082Z,21.90
2022-08-19T20:27:40.261Z,21.80
2022-08-19T20:30:13.004Z,21.90
2022-08-19T20:32:43.116Z,21.90
2022-08-19T20:35:11.814Z,21.90
2022-08-19T20:37:39.625Z,22.00
2022-08-19T20:40:13.411Z,21.90
2022-08-19T20:42:42.297Z,22.00
2022-08-19T20:45:28.023Z,22.00
2022-08-19T20:48:03.367Z,21.90
2022-08-19T20:50:33.120Z,21.90
2022-08-19T20:53:00.780Z,21.90
2022-08-19T20:55:30.394Z,21.90
2022-08-19T20:57:58.685Z,22.00
2022-08-19T21:00:26.356Z,21.90
2022-08-19T21:02:53.802Z,22.00
2022-08-19T21:05:21.339Z,21.90
2022-08-19T21:07:48.783Z,22.00
2022-08-19T21:10:16.585Z,21.90
2022-08-19T21:12:44.485Z,21.90
2022-08-19T21:15:12.118Z,21.90
2022-08-19T21:17:40.163Z,21.90
2022-08-19T21:20:09.986Z,21.90
2022-08-19T21:22:37.628Z,21.80
2022-08-19T21:25:06.312Z,21.70
2022-08-19T21:27:33.778Z,21.70
2022-08-19T21:30:01.290Z,21.70
2022-08-19T21:32:28.817Z,21.70
2022-08-19T21:34:57.259Z,21.60
2022-08-19T21:37:25.663Z,21.60
2022-08-19T21:39:54.644Z,21.60
2022-08-19T21:42:23.616Z,21.40
2022-08-19T21:44:51.269Z,21.40
2022-08-19T21:47:18.784Z,21.20
2022-08-19T21:49:46.254Z,21.30
2022-08-19T21:52:13.759Z,21.20
2022-08-19T21:54:41.775Z,21.30
2022-08-19T21:57:10.346Z,21.30
2022-08-19T21:59:44.151Z,21.20
2022-08-19T22:02:20.544Z,21.40
2022-08-19T22:04:50.236Z,21.20
2022-08-19T22:07:18.173Z,21.30
2022-08-19T22:09:48.421Z,20.90
2022-08-19T22:12:26.698Z,21.00
2022-08-19T22:14:55.415Z,20.60
2022-08-19T22:17:23.199Z,20.60
2022-08-19T22:19:52.452Z,20.50
2022-08-19T22:22:30.755Z,20.60
2022-08-19T22:25:12.531Z,20.60
2022-08-19T22:27:40.163Z,20.70
2022-08-19T22:30:12.652Z,20.90
2022-08-19T22:32:47.849Z,20.90
2022-08-19T22:35:25.064Z,20.60
2022-08-19T22:37:52.610Z,20.30
2022-08-19T22:40:20.469Z,20.20
2022-08-19T22:42:48.994Z,20.40
2022-08-19T22:45:18.297Z,20.20
2022-08-19T22:47:45.702Z,20.10
2022-08-19T22:50:13.932Z,20.10
2022-08-19T22:52:51.976Z,20.30
2022-08-19T22:55:19.792Z,20.50
2022-08-19T22:57:47.858Z,20.50
2022-08-19T23:00:15.860Z,20.30
2022-08-19T23:02:51.855Z,20.20
2022-08-19T23:05:22.153Z,20.10
2022-08-19T23:07:52.581Z,20.20
2022-08-19T23:10:26.920Z,20.00
2022-08-19T23:12:57.869Z,19.90
2022-08-19T23:15:29.899Z,19.90
2022-08-19T23:18:00.515Z,19.80
2022-08-19T23:20:33.986Z,19.60
2022-08-19T23:23:07.354Z,19.70
2022-08-19T23:25:36.916Z,19.80
2022-08-19T23:28:24.428Z,20.00
2022-08-19T23:30:53.484Z,20.00
2022-08-19T23:33:46.581Z,20.10
2022-08-19T23:36:20.487Z,19.90
2022-08-19T23:38:49.397Z,19.70
2022-08-19T23:41:19.731Z,19.80
2022-08-19T23:43:47.667Z,19.70
2022-08-19T23:46:27.302Z,19.70
2022-08-19T23:48:55.723Z,19.70
2022-08-19T23:51:23.595Z,19.60
2022-08-19T23:53:51.075Z,19.60
2022-08-19T23:56:18.464Z,19.70
2022-08-19T23:58:47.129Z,19.80
